Time;durP1;ratioP1;P1;durP2;ratioP2;P2;SDS_P1;SDS_P2;PMS_P1;PMS_P2;Temp;Humidity;BMP_temperature;BMP_pressure;BME280_temperature;BME280_humidity;BME280_pressure;Samples;Min_cycle;Max_cycle;Signal;HPM_P1;HPM_P2
2021/08/24 00:02:18;;;;;;;3.53;1.23;;;;;;;;;;4959024;29;20081;-83
2021/08/24 00:04:44;;;;;;;4.68;1.30;;;;;;;;;;4941483;29;20118;-83
2021/08/24 00:07:10;;;;;;;1.98;1.00;;;;;;;;;;4941578;29;20219;-83
2021/08/24 00:09:36;;;;;;;2.88;1.20;;;;;;;;;;4941581;29;20035;-82
2021/08/24 00:12:03;;;;;;;4.65;1.20;;;;;;;;;;4941482;29;20476;-83
2021/08/24 00:14:31;;;;;;;3.03;1.50;;;;;;;;;;4941475;29;20122;-85
2021/08/24 00:16:57;;;;;;;3.00;1.33;;;;;;;;;;4941480;29;20034;-83
2021/08/24 00:19:23;;;;;;;4.18;1.48;;;;;;;;;;4941373;29;20150;-81
2021/08/24 00:21:50;;;;;;;3.28;1.40;;;;;;;;;;4941224;29;20093;-84
2021/08/24 00:24:17;;;;;;;3.33;1.50;;;;;;;;;;4941471;29;20023;-86
2021/08/24 00:26:43;;;;;;;3.35;1.33;;;;;;;;;;4941595;29;20027;-85
2021/08/24 00:29:09;;;;;;;1.90;1.10;;;;;;;;;;4940860;29;20496;-83
2021/08/24 00:31:35;;;;;;;3.72;1.42;;;;;;;;;;4941125;29;20061;-83
2021/08/24 00:34:01;;;;;;;5.03;1.50;;;;;;;;;;4941136;29;20027;-84
2021/08/24 00:36:27;;;;;;;3.03;1.45;;;;;;;;;;4941040;29;20078;-83
2021/08/24 00:38:53;;;;;;;2.78;1.50;;;;;;;;;;4941145;29;20029;-84
2021/08/24 00:41:20;;;;;;;2.20;1.20;;;;;;;;;;4940885;29;20033;-83
2021/08/24 00:43:47;;;;;;;3.13;1.50;;;;;;;;;;4941160;29;20031;-84
2021/08/24 00:46:13;;;;;;;2.88;1.38;;;;;;;;;;4940941;29;20054;-86
2021/08/24 00:48:40;;;;;;;3.03;1.45;;;;;;;;;;4940918;29;20118;-83
2021/08/24 00:51:07;;;;;;;4.53;1.52;;;;;;;;;;4941058;29;20038;-92
2021/08/24 00:53:36;;;;;;;5.10;1.58;;;;;;;;;;4940792;29;20384;-84
2021/08/24 00:56:03;;;;;;;2.72;1.45;;;;;;;;;;4957922;29;20034;-83
2021/08/24 00:58:29;;;;;;;6.13;1.50;;;;;;;;;;4940739;29;20085;-84
2021/08/24 01:00:55;;;;;;;2.88;1.50;;;;;;;;;;4941013;29;20031;-83
2021/08/24 01:03:24;;;;;;;3.47;1.60;;;;;;;;;;4940553;29;20043;-83
2021/08/24 01:05:51;;;;;;;2.55;1.48;;;;;;;;;;4957741;29;20023;-82
2021/08/24 01:08:36;;;;;;;3.47;1.60;;;;;;;;;;4940260;29;20126;-84
2021/08/24 01:11:11;;;;;;;4.45;1.45;;;;;;;;;;4940647;29;20028;-83
2021/08/24 01:13:42;;;;;;;2.78;1.35;;;;;;;;;;4940516;29;20382;-89
2021/08/24 01:16:17;;;;;;;2.75;1.48;;;;;;;;;;4940642;29;20027;-92
2021/08/24 01:19:04;;;;;;;2.83;1.30;;;;;;;;;;4941336;29;20019;-87
2021/08/24 01:21:50;;;;;;;5.75;1.63;;;;;;;;;;4892953;29;20047;-83
2021/08/24 01:24:16;;;;;;;3.30;1.50;;;;;;;;;;4939797;29;20035;-84
2021/08/24 01:26:49;;;;;;;3.55;1.60;;;;;;;;;;4940164;29;20034;-86
2021/08/24 01:29:18;;;;;;;3.70;1.58;;;;;;;;;;4940308;29;20051;-87
2021/08/24 01:31:53;;;;;;;3.47;1.58;;;;;;;;;;4940460;29;20121;-87
2021/08/24 01:34:38;;;;;;;3.28;1.50;;;;;;;;;;4940140;29;20062;-85
2021/08/24 01:37:06;;;;;;;3.08;1.65;;;;;;;;;;4940011;29;20023;-88
2021/08/24 01:39:32;;;;;;;2.40;1.48;;;;;;;;;;4940187;29;20035;-85
2021/08/24 01:41:59;;;;;;;3.60;1.70;;;;;;;;;;4939851;29;20036;-87
2021/08/24 01:44:26;;;;;;;3.00;1.48;;;;;;;;;;4939816;29;20019;-84
2021/08/24 01:46:58;;;;;;;3.15;1.58;;;;;;;;;;4939961;29;20027;-84
2021/08/24 01:49:30;;;;;;;2.90;1.52;;;;;;;;;;4939921;29;20055;-85
2021/08/24 01:52:00;;;;;;;2.50;1.50;;;;;;;;;;4939949;29;20031;-87
2021/08/24 01:54:29;;;;;;;2.28;1.30;;;;;;;;;;4939694;29;20476;-88
2021/08/24 01:56:56;;;;;;;2.97;1.60;;;;;;;;;;4956948;29;20075;-83
2021/08/24 01:59:41;;;;;;;2.42;1.27;;;;;;;;;;4939943;29;20038;-84
2021/08/24 02:02:09;;;;;;;3.53;1.45;;;;;;;;;;4938998;29;20039;-84
2021/08/24 02:04:44;;;;;;;3.08;1.42;;;;;;;;;;4939378;29;20101;-85
2021/08/24 02:07:11;;;;;;;2.58;1.55;;;;;;;;;;4939368;29;20039;-85
2021/08/24 02:09:43;;;;;;;2.83;1.60;;;;;;;;;;4939300;29;20079;-85
2021/08/24 02:12:10;;;;;;;2.38;1.50;;;;;;;;;;4939185;29;20031;-84
2021/08/24 02:14:40;;;;;;;2.35;1.27;;;;;;;;;;4957100;29;20023;-89
2021/08/24 02:17:07;;;;;;;2.60;1.50;;;;;;;;;;4939021;29;20066;-87
2021/08/24 02:19:37;;;;;;;3.10;1.73;;;;;;;;;;4956604;29;20031;-85
2021/08/24 02:22:05;;;;;;;2.80;1.67;;;;;;;;;;4939254;29;20049;-86
2021/08/24 02:24:37;;;;;;;2.38;1.35;;;;;;;;;;4939226;29;20383;-84
2021/08/24 02:27:08;;;;;;;4.40;1.50;;;;;;;;;;4956381;29;20067;-85
2021/08/24 02:29:34;;;;;;;2.05;1.40;;;;;;;;;;4938935;29;20087;-85
2021/08/24 02:32:02;;;;;;;2.40;1.50;;;;;;;;;;4939247;29;20524;-87
2021/08/24 02:34:28;;;;;;;3.53;1.75;;;;;;;;;;4938897;29;20031;-85
2021/08/24 02:37:13;;;;;;;2.13;1.40;;;;;;;;;;4941449;29;20027;-85
2021/08/24 02:39:46;;;;;;;2.50;1.52;;;;;;;;;;4938789;29;20054;-84
2021/08/24 02:42:21;;;;;;;1.90;1.20;;;;;;;;;;4938950;29;20039;-86
2021/08/24 02:44:51;;;;;;;2.60;1.50;;;;;;;;;;4939061;29;20042;-85
2021/08/24 02:47:18;;;;;;;3.17;1.30;;;;;;;;;;4956336;29;20527;-91
2021/08/24 02:49:45;;;;;;;4.20;1.90;;;;;;;;;;4938634;29;20069;-89
2021/08/24 02:52:12;;;;;;;2.47;1.48;;;;;;;;;;4956483;29;20031;-86
2021/08/24 02:54:40;;;;;;;3.00;1.77;;;;;;;;;;4938667;29;20023;-86
2021/08/24 02:57:07;;;;;;;2.53;1.58;;;;;;;;;;4938860;29;20166;-86
2021/08/24 02:59:34;;;;;;;13.02;1.90;;;;;;;;;;4938783;29;20034;-86
2021/08/24 03:02:01;;;;;;;2.80;1.67;;;;;;;;;;4955765;29;20054;-88
2021/08/24 03:04:29;;;;;;;7.32;1.30;;;;;;;;;;4955746;29;20400;-85
2021/08/24 03:07:00;;;;;;;4.15;1.90;;;;;;;;;;4939643;29;20027;-91
2021/08/24 03:09:27;;;;;;;2.78;1.60;;;;;;;;;;4938680;29;20494;-87
2021/08/24 03:12:22;;;;;;;3.03;1.58;;;;;;;;;;4955814;29;20023;-84
2021/08/24 03:14:54;;;;;;;3.17;1.67;;;;;;;;;;4918137;29;20424;-85
2021/08/24 03:17:49;;;;;;;9.38;1.70;;;;;;;;;;4955814;29;20023;-85
2021/08/24 03:20:17;;;;;;;3.15;1.52;;;;;;;;;;4918450;29;20445;-84
2021/08/24 03:22:44;;;;;;;7.53;1.80;;;;;;;;;;4938158;29;20047;-85
2021/08/24 03:25:11;;;;;;;3.17;1.80;;;;;;;;;;4937993;29;20054;-85
2021/08/24 03:27:39;;;;;;;2.92;1.70;;;;;;;;;;4938428;29;20035;-90
2021/08/24 03:30:10;;;;;;;2.63;1.65;;;;;;;;;;4955705;29;20043;-91
2021/08/24 03:32:37;;;;;;;3.38;1.95;;;;;;;;;;4938393;29;20035;-89
2021/08/24 03:35:03;;;;;;;2.88;1.60;;;;;;;;;;4938183;29;20027;-92
2021/08/24 03:37:33;;;;;;;4.22;1.90;;;;;;;;;;4938390;29;20042;-85
2021/08/24 03:39:59;;;;;;;4.03;1.58;;;;;;;;;;4938789;29;20034;-85
2021/08/24 03:42:25;;;;;;;3.38;1.80;;;;;;;;;;4955385;29;20035;-84
2021/08/24 03:44:53;;;;;;;3.20;1.70;;;;;;;;;;4938169;29;20031;-89
2021/08/24 03:47:19;;;;;;;4.13;1.65;;;;;;;;;;4955409;29;20038;-92
2021/08/24 03:49:45;;;;;;;2.85;1.92;;;;;;;;;;4938567;29;20384;-85
2021/08/24 03:52:12;;;;;;;2.67;1.65;;;;;;;;;;4938292;29;20106;-87
2021/08/24 03:54:38;;;;;;;3.47;1.85;;;;;;;;;;4938569;29;20034;-85
2021/08/24 03:57:05;;;;;;;2.42;1.60;;;;;;;;;;4955555;29;20034;-88
2021/08/24 03:59:31;;;;;;;6.18;3.85;;;;;;;;;;4938349;29;20031;-84
2021/08/24 04:01:58;;;;;;;3.83;2.08;;;;;;;;;;4938190;29;20451;-85
2021/08/24 04:04:24;;;;;;;4.22;2.05;;;;;;;;;;4938119;29;20118;-84
2021/08/24 04:06:50;;;;;;;4.03;2.38;;;;;;;;;;4938097;29;20113;-90
2021/08/24 04:09:16;;;;;;;3.80;2.08;;;;;;;;;;4955205;29;20031;-83
2021/08/24 04:11:42;;;;;;;3.50;2.42;;;;;;;;;;4937937;29;20074;-90
2021/08/24 04:14:09;;;;;;;4.07;3.00;;;;;;;;;;4937903;29;20055;-88
2021/08/24 04:16:35;;;;;;;4.25;2.65;;;;;;;;;;4938308;29;20143;-86
2021/08/24 04:19:02;;;;;;;5.25;2.70;;;;;;;;;;4938624;29;20088;-90
2021/08/24 04:21:28;;;;;;;4.57;2.83;;;;;;;;;;4938089;29;20361;-87
2021/08/24 04:23:54;;;;;;;3.92;2.50;;;;;;;;;;4939036;28;20031;-85
2021/08/24 04:26:20;;;;;;;4.15;2.53;;;;;;;;;;4941472;29;20028;-84
2021/08/24 04:28:46;;;;;;;4.45;2.70;;;;;;;;;;4941057;29;20142;-85
2021/08/24 04:31:14;;;;;;;5.15;2.85;;;;;;;;;;4941432;29;20428;-90
2021/08/24 04:33:41;;;;;;;4.60;2.63;;;;;;;;;;4941363;29;20090;-92
2021/08/24 04:36:07;;;;;;;4.90;2.60;;;;;;;;;;4941520;29;20112;-84
2021/08/24 04:38:34;;;;;;;5.53;2.97;;;;;;;;;;4958833;29;20023;-91
2021/08/24 04:41:01;;;;;;;4.05;2.53;;;;;;;;;;4958523;29;20035;-85
2021/08/24 04:43:27;;;;;;;3.92;2.47;;;;;;;;;;4958934;29;20039;-88
2021/08/24 04:45:53;;;;;;;4.78;2.47;;;;;;;;;;4941556;29;20447;-81
2021/08/24 04:48:20;;;;;;;4.18;2.10;;;;;;;;;;4941033;29;20035;-93
2021/08/24 04:50:47;;;;;;;5.60;2.22;;;;;;;;;;4941065;29;20034;-87
2021/08/24 04:53:14;;;;;;;5.18;2.33;;;;;;;;;;4941802;29;20032;-91
2021/08/24 04:55:40;;;;;;;4.60;2.08;;;;;;;;;;4941699;29;20027;-91
2021/08/24 04:58:07;;;;;;;4.72;2.60;;;;;;;;;;4941655;29;20027;-90
2021/08/24 05:00:34;;;;;;;3.40;2.35;;;;;;;;;;4942689;29;20062;-89
2021/08/24 05:03:01;;;;;;;4.13;2.42;;;;;;;;;;4941354;29;20516;-89
2021/08/24 05:05:27;;;;;;;5.05;2.20;;;;;;;;;;4940897;29;20411;-80
2021/08/24 05:07:54;;;;;;;7.60;2.85;;;;;;;;;;4940727;29;20028;-91
2021/08/24 05:10:21;;;;;;;3.95;2.50;;;;;;;;;;4957958;29;20023;-89
2021/08/24 05:12:47;;;;;;;4.60;2.28;;;;;;;;;;4941103;29;20059;-86
2021/08/24 05:15:13;;;;;;;6.25;2.67;;;;;;;;;;4940376;29;20027;-90
2021/08/24 05:17:40;;;;;;;6.38;2.67;;;;;;;;;;4940480;29;20050;-91
2021/08/24 05:20:07;;;;;;;3.50;2.60;;;;;;;;;;4940728;29;20098;-91
2021/08/24 05:22:33;;;;;;;5.45;3.17;;;;;;;;;;4957324;29;20074;-87
2021/08/24 05:24:59;;;;;;;5.03;3.05;;;;;;;;;;4940173;29;20436;-82
2021/08/24 05:27:25;;;;;;;6.07;3.28;;;;;;;;;;4940248;29;20031;-85
2021/08/24 05:29:52;;;;;;;4.60;3.03;;;;;;;;;;4940163;29;20496;-81
2021/08/24 05:32:18;;;;;;;7.13;3.50;;;;;;;;;;4940110;29;20117;-85
2021/08/24 05:34:44;;;;;;;5.13;3.10;;;;;;;;;;4940392;29;20031;-86
2021/08/24 05:37:11;;;;;;;4.45;3.25;;;;;;;;;;4957239;28;20426;-86
2021/08/24 05:39:38;;;;;;;4.85;3.25;;;;;;;;;;4939913;29;20034;-87
2021/08/24 05:42:04;;;;;;;4.93;3.13;;;;;;;;;;4939984;29;20093;-85
2021/08/24 05:44:30;;;;;;;5.40;3.33;;;;;;;;;;4957033;29;20061;-86
2021/08/24 05:46:57;;;;;;;4.50;3.08;;;;;;;;;;4940820;29;20449;-85
2021/08/24 05:49:23;;;;;;;5.75;3.10;;;;;;;;;;4940040;29;20034;-84
2021/08/24 05:51:49;;;;;;;4.30;3.15;;;;;;;;;;4940139;29;20034;-84
2021/08/24 05:54:15;;;;;;;5.47;3.28;;;;;;;;;;4939844;29;20043;-81
2021/08/24 05:56:42;;;;;;;6.78;3.28;;;;;;;;;;4939817;29;20114;-91
2021/08/24 05:59:09;;;;;;;5.55;3.47;;;;;;;;;;4940317;29;20031;-80
2021/08/24 06:01:35;;;;;;;4.95;3.10;;;;;;;;;;4956671;29;20032;-86
2021/08/24 06:04:01;;;;;;;6.90;3.33;;;;;;;;;;4956755;29;20035;-85
2021/08/24 06:06:32;;;;;;;5.15;3.20;;;;;;;;;;4939633;29;20038;-81
2021/08/24 06:08:59;;;;;;;5.45;2.72;;;;;;;;;;4939150;29;20031;-89
2021/08/24 06:11:27;;;;;;;5.05;3.10;;;;;;;;;;4939827;29;20028;-91
2021/08/24 06:13:54;;;;;;;5.00;3.22;;;;;;;;;;4940963;29;20109;-89
2021/08/24 06:16:20;;;;;;;4.55;2.75;;;;;;;;;;4940323;29;20031;-93
2021/08/24 06:18:46;;;;;;;4.32;2.38;;;;;;;;;;4940528;29;20058;-84
2021/08/24 06:21:13;;;;;;;5.03;2.42;;;;;;;;;;4957348;29;20027;-90
2021/08/24 06:23:40;;;;;;;5.32;2.40;;;;;;;;;;4940072;29;20067;-91
2021/08/24 06:26:06;;;;;;;3.58;2.25;;;;;;;;;;4939815;29;20480;-93
2021/08/24 06:28:33;;;;;;;4.25;2.10;;;;;;;;;;4939617;29;20154;-92
2021/08/24 06:30:59;;;;;;;5.00;2.00;;;;;;;;;;4939696;29;20031;-86
2021/08/24 06:33:35;;;;;;;2.63;1.65;;;;;;;;;;4957401;29;20023;-92
2021/08/24 06:36:01;;;;;;;2.85;1.55;;;;;;;;;;4939259;29;20066;-94
2021/08/24 06:38:29;;;;;;;3.05;1.67;;;;;;;;;;4956706;29;20062;-91
2021/08/24 06:40:56;;;;;;;2.47;1.33;;;;;;;;;;4935750;29;20481;-91
2021/08/24 06:43:22;;;;;;;2.70;1.30;;;;;;;;;;4932553;29;20054;-92
2021/08/24 06:45:49;;;;;;;2.22;1.20;;;;;;;;;;4921470;29;20028;-92
2021/08/24 06:48:15;;;;;;;3.55;1.50;;;;;;;;;;4920796;29;20032;-92
2021/08/24 06:50:41;;;;;;;2.33;1.27;;;;;;;;;;4921152;29;20028;-90
2021/08/24 06:53:09;;;;;;;4.55;1.58;;;;;;;;;;4920272;29;20038;-92
2021/08/24 06:55:37;;;;;;;4.20;1.50;;;;;;;;;;4920727;29;20140;-92
2021/08/24 06:58:05;;;;;;;2.60;1.42;;;;;;;;;;4938038;29;20024;-92
2021/08/24 07:00:31;;;;;;;2.67;1.45;;;;;;;;;;4920732;29;20038;-92
2021/08/24 07:02:58;;;;;;;4.32;1.48;;;;;;;;;;4923838;29;20039;-85
2021/08/24 07:05:34;;;;;;;2.28;1.42;;;;;;;;;;4922134;29;20024;-88
2021/08/24 07:08:00;;;;;;;3.42;1.50;;;;;;;;;;4920382;29;20030;-82
2021/08/24 07:10:27;;;;;;;3.40;1.33;;;;;;;;;;4919441;29;20560;-90
2021/08/24 07:12:53;;;;;;;2.67;1.60;;;;;;;;;;4937272;29;20024;-87
2021/08/24 07:15:21;;;;;;;2.17;1.10;;;;;;;;;;4920452;29;20032;-90
2021/08/24 07:17:47;;;;;;;3.70;1.60;;;;;;;;;;4920136;29;20051;-90
2021/08/24 07:20:16;;;;;;;4.35;1.83;;;;;;;;;;4937553;29;20027;-92
2021/08/24 07:22:43;;;;;;;2.85;1.77;;;;;;;;;;4920511;29;20074;-91
2021/08/24 07:25:12;;;;;;;2.63;1.48;;;;;;;;;;4920365;29;20051;-89
2021/08/24 07:27:38;;;;;;;6.40;1.80;;;;;;;;;;4921830;29;20024;-91
2021/08/24 07:30:05;;;;;;;2.55;1.60;;;;;;;;;;4921205;29;20051;-90
2021/08/24 07:32:32;;;;;;;3.15;1.77;;;;;;;;;;4922174;29;20079;-91
2021/08/24 07:34:58;;;;;;;3.38;1.50;;;;;;;;;;4922977;29;20044;-91
2021/08/24 07:37:24;;;;;;;3.17;1.75;;;;;;;;;;4921056;29;20024;-90
2021/08/24 07:39:51;;;;;;;3.28;1.67;;;;;;;;;;4920369;29;20035;-92
2021/08/24 07:42:17;;;;;;;3.40;1.80;;;;;;;;;;4920488;29;20111;-92
2021/08/24 07:44:44;;;;;;;2.97;1.60;;;;;;;;;;4920099;29;20396;-90
2021/08/24 07:47:10;;;;;;;2.55;1.50;;;;;;;;;;4919356;29;20031;-88
2021/08/24 07:49:37;;;;;;;2.28;1.27;;;;;;;;;;4919430;29;20028;-86
2021/08/24 07:52:09;;;;;;;10.00;1.52;;;;;;;;;;4919360;29;20031;-84
2021/08/24 07:54:36;;;;;;;2.30;1.17;;;;;;;;;;4919396;29;20032;-87
2021/08/24 07:57:02;;;;;;;1.85;0.90;;;;;;;;;;4919300;29;20086;-84
2021/08/24 07:59:29;;;;;;;4.00;1.13;;;;;;;;;;4920127;29;20020;-89
2021/08/24 08:01:55;;;;;;;2.00;1.00;;;;;;;;;;4923260;29;20476;-82
2021/08/24 08:04:22;;;;;;;1.60;1.00;;;;;;;;;;4923031;29;20071;-86
2021/08/24 08:06:49;;;;;;;2.25;1.00;;;;;;;;;;4923138;29;20119;-83
2021/08/24 08:09:15;;;;;;;1.90;0.98;;;;;;;;;;4922844;29;20032;-89
2021/08/24 08:11:42;;;;;;;3.17;0.80;;;;;;;;;;4923076;29;20058;-88
2021/08/24 08:14:08;;;;;;;1.85;1.10;;;;;;;;;;4939975;29;20044;-89
2021/08/24 08:16:38;;;;;;;1.85;1.02;;;;;;;;;;4922430;29;20035;-82
2021/08/24 08:19:04;;;;;;;1.77;1.00;;;;;;;;;;4940087;29;20031;-89
2021/08/24 08:21:31;;;;;;;1.85;1.05;;;;;;;;;;4922680;29;20035;-82
2021/08/24 08:23:58;;;;;;;2.60;1.30;;;;;;;;;;4922381;29;20138;-88
2021/08/24 08:26:24;;;;;;;4.30;1.33;;;;;;;;;;4922655;29;20024;-89
2021/08/24 08:28:51;;;;;;;2.08;1.02;;;;;;;;;;4921912;29;20070;-88
2021/08/24 08:31:17;;;;;;;2.20;1.10;;;;;;;;;;4922917;29;20465;-89
2021/08/24 08:33:44;;;;;;;1.40;0.93;;;;;;;;;;4922751;29;20032;-90
2021/08/24 08:36:10;;;;;;;1.90;0.82;;;;;;;;;;4939330;29;20024;-87
2021/08/24 08:38:36;;;;;;;2.08;1.20;;;;;;;;;;4922281;29;20397;-89
2021/08/24 08:41:15;;;;;;;1.67;0.90;;;;;;;;;;4922333;29;20031;-88
2021/08/24 08:43:47;;;;;;;1.77;1.00;;;;;;;;;;4922235;29;20063;-86
2021/08/24 08:46:46;;;;;;;1.70;0.80;;;;;;;;;;4922754;29;20087;-89
2021/08/24 08:49:27;;;;;;;4.55;1.15;;;;;;;;;;4891306;29;20036;-89
2021/08/24 08:51:53;;;;;;;2.20;1.27;;;;;;;;;;4922093;29;20046;-87
2021/08/24 08:54:22;;;;;;;1.70;1.00;;;;;;;;;;4922286;29;20090;-88
2021/08/24 08:56:52;;;;;;;1.55;0.85;;;;;;;;;;4939230;29;20027;-87
2021/08/24 08:59:22;;;;;;;1.95;1.00;;;;;;;;;;4922175;29;20035;-89
2021/08/24 09:01:51;;;;;;;1.90;1.10;;;;;;;;;;4922244;29;20496;-88
2021/08/24 09:04:19;;;;;;;2.03;1.10;;;;;;;;;;4922163;29;20396;-89
2021/08/24 09:06:47;;;;;;;2.10;1.10;;;;;;;;;;4922048;29;20027;-86
2021/08/24 09:09:13;;;;;;;1.77;1.05;;;;;;;;;;4922652;29;20473;-86
2021/08/24 09:11:43;;;;;;;3.38;1.02;;;;;;;;;;4921208;29;20380;-89
2021/08/24 09:14:21;;;;;;;2.08;0.80;;;;;;;;;;4922144;29;20028;-88
2021/08/24 09:16:51;;;;;;;3.08;1.00;;;;;;;;;;4922038;29;20114;-91
2021/08/24 09:19:25;;;;;;;1.75;0.90;;;;;;;;;;4921604;29;20396;-91
2021/08/24 09:21:51;;;;;;;1.77;0.90;;;;;;;;;;4921694;29;20036;-91
2021/08/24 09:24:36;;;;;;;1.92;1.00;;;;;;;;;;4921588;29;20397;-81
2021/08/24 09:27:05;;;;;;;1.92;0.90;;;;;;;;;;4922611;29;20366;-89
2021/08/24 09:29:34;;;;;;;1.75;0.85;;;;;;;;;;4922051;29;20187;-91
2021/08/24 09:32:06;;;;;;;2.33;0.73;;;;;;;;;;4922274;29;20032;-90
2021/08/24 09:34:34;;;;;;;1.45;0.75;;;;;;;;;;4921697;29;20095;-89
2021/08/24 09:37:01;;;;;;;1.65;0.82;;;;;;;;;;4921564;29;20039;-81
2021/08/24 09:39:48;;;;;;;2.20;1.10;;;;;;;;;;4921756;29;20075;-89
2021/08/24 09:42:15;;;;;;;2.05;0.77;;;;;;;;;;4921384;29;20050;-91
2021/08/24 09:44:41;;;;;;;1.20;0.70;;;;;;;;;;4922450;29;20471;-91
2021/08/24 09:47:18;;;;;;;1.20;0.50;;;;;;;;;;4921670;29;20032;-90
2021/08/24 09:49:45;;;;;;;1.92;0.80;;;;;;;;;;4921658;29;20093;-90
2021/08/24 09:52:12;;;;;;;2.10;0.90;;;;;;;;;;4921445;29;20034;-92
2021/08/24 09:54:39;;;;;;;6.35;0.90;;;;;;;;;;4921406;29;20038;-92
2021/08/24 09:57:16;;;;;;;1.75;0.80;;;;;;;;;;4921661;29;20531;-91
2021/08/24 10:00:02;;;;;;;1.48;0.70;;;;;;;;;;4922233;29;20027;-88
2021/08/24 10:02:39;;;;;;;1.42;0.63;;;;;;;;;;4927275;29;20405;-89
2021/08/24 10:05:07;;;;;;;3.22;0.80;;;;;;;;;;4939364;29;20019;-88
2021/08/24 10:07:35;;;;;;;1.58;0.57;;;;;;;;;;4921009;29;20027;-90
2021/08/24 10:10:01;;;;;;;2.03;0.90;;;;;;;;;;4921229;29;20027;-88
2021/08/24 10:12:33;;;;;;;1.10;0.52;;;;;;;;;;4921509;29;20042;-88
2021/08/24 10:15:19;;;;;;;3.90;0.80;;;;;;;;;;4922204;29;20024;-91
2021/08/24 10:17:46;;;;;;;1.15;0.52;;;;;;;;;;4938507;29;20111;-91
2021/08/24 10:20:21;;;;;;;1.25;0.60;;;;;;;;;;4921205;29;20031;-92
2021/08/24 10:22:49;;;;;;;1.27;0.60;;;;;;;;;;4920290;29;20150;-92
2021/08/24 10:25:23;;;;;;;0.68;0.40;;;;;;;;;;4921218;29;20033;-90
2021/08/24 10:28:05;;;;;;;1.10;0.52;;;;;;;;;;4920983;29;20035;-89
2021/08/24 10:30:41;;;;;;;3.63;0.47;;;;;;;;;;4920696;29;20036;-91
2021/08/24 10:33:15;;;;;;;3.72;0.45;;;;;;;;;;4921098;29;20075;-91
2021/08/24 10:35:42;;;;;;;1.15;0.40;;;;;;;;;;4921669;29;20361;-92
2021/08/24 10:38:16;;;;;;;0.95;0.40;;;;;;;;;;4921211;29;20114;-92
2021/08/24 10:40:46;;;;;;;0.70;0.30;;;;;;;;;;4920842;29;20104;-91
2021/08/24 10:43:13;;;;;;;0.75;0.38;;;;;;;;;;4921086;29;20078;-92
2021/08/24 10:45:41;;;;;;;0.68;0.30;;;;;;;;;;4921129;29;20035;-91
2021/08/24 10:48:18;;;;;;;1.10;0.40;;;;;;;;;;4925216;29;20028;-87
2021/08/24 10:50:47;;;;;;;0.50;0.30;;;;;;;;;;4907674;29;20031;-91
2021/08/24 10:53:33;;;;;;;0.60;0.20;;;;;;;;;;4920674;29;20020;-91
2021/08/24 10:56:13;;;;;;;0.47;0.28;;;;;;;;;;4921287;29;20031;-89
2021/08/24 10:58:42;;;;;;;0.40;0.20;;;;;;;;;;4920625;29;20028;-90
2021/08/24 11:01:17;;;;;;;0.93;0.35;;;;;;;;;;4920431;29;20031;-89
2021/08/24 11:03:49;;;;;;;0.77;0.30;;;;;;;;;;4920027;29;20504;-91
2021/08/24 11:06:16;;;;;;;0.65;0.30;;;;;;;;;;4920549;29;20414;-90
2021/08/24 11:09:11;;;;;;;0.75;0.30;;;;;;;;;;4919904;29;20035;-92
2021/08/24 11:11:40;;;;;;;1.17;0.20;;;;;;;;;;4870049;29;20494;-88
2021/08/24 11:14:19;;;;;;;1.45;0.60;;;;;;;;;;4920167;29;20493;-90
2021/08/24 11:16:45;;;;;;;1.73;0.30;;;;;;;;;;4920323;29;20533;-92
2021/08/24 11:19:30;;;;;;;0.80;0.40;;;;;;;;;;4920888;29;20098;-87
2021/08/24 11:22:06;;;;;;;1.02;0.30;;;;;;;;;;4920036;29;20038;-88
2021/08/24 11:24:36;;;;;;;0.82;0.30;;;;;;;;;;4920823;29;20039;-91
2021/08/24 11:27:11;;;;;;;0.63;0.20;;;;;;;;;;4919978;29;20028;-91
2021/08/24 11:29:40;;;;;;;3.10;0.40;;;;;;;;;;4919795;29;20062;-88
2021/08/24 11:32:24;;;;;;;0.93;0.32;;;;;;;;;;4920157;29;20027;-88
2021/08/24 11:35:03;;;;;;;1.10;0.40;;;;;;;;;;4920942;29;20059;-88
2021/08/24 11:37:31;;;;;;;1.30;0.40;;;;;;;;;;4923425;29;20423;-86
2021/08/24 11:40:03;;;;;;;0.43;0.20;;;;;;;;;;4923788;29;20031;-90
2021/08/24 11:42:36;;;;;;;3.08;0.70;;;;;;;;;;4923750;29;20028;-88
2021/08/24 11:45:05;;;;;;;2.75;0.30;;;;;;;;;;4923336;29;20060;-87
2021/08/24 11:47:32;;;;;;;0.65;0.30;;;;;;;;;;4941713;29;20024;-88
2021/08/24 11:50:02;;;;;;;0.80;0.32;;;;;;;;;;4923868;29;20063;-87
2021/08/24 11:52:28;;;;;;;0.77;0.22;;;;;;;;;;4924155;29;20024;-88
2021/08/24 11:55:07;;;;;;;3.75;0.30;;;;;;;;;;4923432;29;20034;-88
2021/08/24 11:57:45;;;;;;;0.50;0.20;;;;;;;;;;4924096;29;20413;-88
2021/08/24 12:00:14;;;;;;;4.25;0.20;;;;;;;;;;4923330;29;20465;-91
2021/08/24 12:02:43;;;;;;;0.52;0.28;;;;;;;;;;4923756;29;20079;-88
2021/08/24 12:05:17;;;;;;;0.82;0.30;;;;;;;;;;4922973;29;20122;-88
2021/08/24 12:07:44;;;;;;;0.22;0.10;;;;;;;;;;4923357;29;20031;-91
2021/08/24 12:10:20;;;;;;;0.60;0.28;;;;;;;;;;4922849;29;20028;-87
2021/08/24 12:12:48;;;;;;;3.15;0.20;;;;;;;;;;4922904;29;20028;-89
2021/08/24 12:15:29;;;;;;;0.30;0.20;;;;;;;;;;4923042;29;20023;-89
2021/08/24 12:18:04;;;;;;;0.20;0.10;;;;;;;;;;4922690;29;20082;-89
2021/08/24 12:20:34;;;;;;;0.25;0.10;;;;;;;;;;4922878;29;20087;-89
2021/08/24 12:23:05;;;;;;;0.82;0.20;;;;;;;;;;4923063;29;20036;-88
2021/08/24 12:25:33;;;;;;;3.40;0.35;;;;;;;;;;4923342;29;20557;-89
2021/08/24 12:28:06;;;;;;;0.40;0.20;;;;;;;;;;4922703;29;20037;-91
2021/08/24 12:30:34;;;;;;;1.00;0.23;;;;;;;;;;4924022;29;20032;-92
2021/08/24 12:33:03;;;;;;;0.70;0.20;;;;;;;;;;4939987;29;20159;-91
2021/08/24 12:35:31;;;;;;;0.75;0.20;;;;;;;;;;4922896;29;20370;-89
2021/08/24 12:37:59;;;;;;;0.38;0.20;;;;;;;;;;4922771;29;20035;-89
2021/08/24 12:40:32;;;;;;;0.60;0.20;;;;;;;;;;4923843;29;20114;-92
2021/08/24 12:43:16;;;;;;;0.40;0.10;;;;;;;;;;4922758;29;20087;-92
2021/08/24 12:45:43;;;;;;;1.15;0.20;;;;;;;;;;4922132;29;20072;-88
2021/08/24 12:48:15;;;;;;;0.38;0.20;;;;;;;;;;4922381;29;20039;-92
2021/08/24 12:50:41;;;;;;;0.45;0.13;;;;;;;;;;4922382;29;20034;-93
2021/08/24 12:53:24;;;;;;;3.85;0.22;;;;;;;;;;4939152;29;20056;-90
2021/08/24 12:55:51;;;;;;;3.65;0.43;;;;;;;;;;4922464;29;20179;-92
2021/08/24 12:58:22;;;;;;;0.40;0.20;;;;;;;;;;4922299;29;20024;-92
2021/08/24 13:01:07;;;;;;;1.13;0.30;;;;;;;;;;4922840;29;20500;-92
2021/08/24 13:03:34;;;;;;;0.57;0.30;;;;;;;;;;4924128;29;20059;-91
2021/08/24 13:06:22;;;;;;;0.47;0.20;;;;;;;;;;4923739;29;20020;-89
2021/08/24 13:08:50;;;;;;;0.65;0.20;;;;;;;;;;4923143;29;20373;-90
2021/08/24 13:11:26;;;;;;;1.45;0.30;;;;;;;;;;4922382;29;20020;-90
2021/08/24 13:13:57;;;;;;;0.63;0.30;;;;;;;;;;4922142;29;20027;-90
2021/08/24 13:16:31;;;;;;;1.27;0.40;;;;;;;;;;4922811;29;20045;-90
2021/08/24 13:18:58;;;;;;;1.13;0.30;;;;;;;;;;4922069;29;20031;-90
2021/08/24 13:21:24;;;;;;;0.98;0.40;;;;;;;;;;4921967;29;20038;-90
2021/08/24 13:23:53;;;;;;;0.85;0.25;;;;;;;;;;4921841;29;20540;-90
2021/08/24 13:26:23;;;;;;;2.95;0.40;;;;;;;;;;4923120;29;20028;-92
2021/08/24 13:28:51;;;;;;;1.02;0.32;;;;;;;;;;4921431;29;20054;-90
2021/08/24 13:31:17;;;;;;;0.68;0.30;;;;;;;;;;4921913;29;20055;-90
2021/08/24 13:33:50;;;;;;;1.63;0.40;;;;;;;;;;4923222;29;20030;-93
2021/08/24 13:36:36;;;;;;;0.35;0.22;;;;;;;;;;4922907;29;20061;-90
2021/08/24 13:39:04;;;;;;;2.60;0.28;;;;;;;;;;4911935;29;20095;-90
2021/08/24 13:41:31;;;;;;;2.45;0.55;;;;;;;;;;4922556;29;20475;-93
2021/08/24 13:43:57;;;;;;;0.43;0.20;;;;;;;;;;4921193;29;20071;-87
2021/08/24 13:46:32;;;;;;;1.80;0.40;;;;;;;;;;4922146;29;20111;-90
2021/08/24 13:48:59;;;;;;;1.23;0.20;;;;;;;;;;4922225;29;20064;-90
2021/08/24 13:51:26;;;;;;;1.10;0.30;;;;;;;;;;4921600;29;20055;-89
2021/08/24 13:53:59;;;;;;;5.85;0.40;;;;;;;;;;4937754;29;20519;-89
2021/08/24 13:56:33;;;;;;;1.88;0.60;;;;;;;;;;4921241;29;20126;-90
2021/08/24 13:59:00;;;;;;;1.83;0.70;;;;;;;;;;4921674;29;20052;-91
2021/08/24 14:01:27;;;;;;;1.05;0.55;;;;;;;;;;4921508;29;20036;-88
2021/08/24 14:03:59;;;;;;;1.20;0.50;;;;;;;;;;4921234;29;20031;-89
2021/08/24 14:06:39;;;;;;;2.97;0.90;;;;;;;;;;4921340;29;20091;-89
2021/08/24 14:09:26;;;;;;;1.30;0.57;;;;;;;;;;4920701;29;20038;-88
2021/08/24 14:11:54;;;;;;;1.10;0.50;;;;;;;;;;4920899;29;20023;-89
2021/08/24 14:14:40;;;;;;;3.60;0.55;;;;;;;;;;4921143;29;20028;-91
2021/08/24 14:17:13;;;;;;;1.05;0.50;;;;;;;;;;4920702;29;20030;-91
2021/08/24 14:19:39;;;;;;;;;;;;;;;;;;4921208;29;20050;-89
2021/08/24 14:22:07;;;;;;;3.00;0.90;;;;;;;;;;4920739;29;20360;-89
2021/08/24 14:24:35;;;;;;;1.13;0.60;;;;;;;;;;4921206;29;20032;-91
2021/08/24 14:27:02;;;;;;;2.50;0.90;;;;;;;;;;4920650;29;20031;-89
2021/08/24 14:29:28;;;;;;;1.48;0.80;;;;;;;;;;4920291;29;20047;-90
2021/08/24 14:31:57;;;;;;;1.45;0.70;;;;;;;;;;4920541;29;20036;-89
2021/08/24 14:34:35;;;;;;;2.08;0.63;;;;;;;;;;4920638;29;20024;-89
2021/08/24 14:37:04;;;;;;;2.58;0.90;;;;;;;;;;4920937;29;20032;-88
2021/08/24 14:39:35;;;;;;;1.40;0.80;;;;;;;;;;4920633;29;20373;-88
2021/08/24 14:42:03;;;;;;;1.45;0.80;;;;;;;;;;4920311;29;20035;-90
2021/08/24 14:44:39;;;;;;;6.03;1.20;;;;;;;;;;4920397;29;20118;-91
2021/08/24 14:47:07;;;;;;;3.00;1.50;;;;;;;;;;4920419;29;20034;-91
2021/08/24 14:49:50;;;;;;;2.97;1.45;;;;;;;;;;4925073;29;20051;-88
2021/08/24 14:52:20;;;;;;;2.45;1.30;;;;;;;;;;4943033;29;20043;-87
2021/08/24 14:55:03;;;;;;;2.40;1.25;;;;;;;;;;4919664;29;20031;-87
2021/08/24 14:57:29;;;;;;;2.13;1.30;;;;;;;;;;4920071;29;20481;-88
2021/08/24 15:00:14;;;;;;;3.35;1.30;;;;;;;;;;4919585;29;20027;-89